• Join FlightAware (Why Join?)
  • Login
  • US Flag 
07:00PM EDT


 

Airport Tracker/Info


-or-


 

Live Flight TrackerFlight Track Log ✈ WEW1540 ✈ 10-May-2013 ✈ CYQR - CYYN

Flight Track Log - Related Links

Times and Time Zones

All times are in EDT time to prevent confusion due to time zone crossing. See the WEW1540 flight status page for this flight to view local times or setup timezone preferences in your user account.

Time Position Orientation Groundspeed Altitude Reporting Facility
EDT Latitude Longitude Course Direction KTS MPH feet Rate Location/Type
08:03AM 50.4167 -104.7000 265° West 90 104 3,100  Level Winnipeg Center
08:04AM 50.4333 -104.7500 298° West 120 138 4,000 780 Climbing Winnipeg Center
08:05AM 50.4167 -104.8000 242° Southwest 130 150 4,700 780 Climbing Winnipeg Center
08:06AM 50.4167 -104.8500 270° West 120 138 5,600 600 Climbing Winnipeg Center
08:07AM 50.4167 -104.9000 270° West 120 138 6,000 180 Climbing Winnipeg Center
08:08AM 50.4000 -104.9833 253° West 140 161 6,000  Level Winnipeg Center
08:09AM 50.4137 -105.0219 265° West  Level FlightAware Approximate
08:09AM 50.4000 -105.0333 270° West 150 173 6,000  Level Winnipeg Center
08:10AM 50.4167 -105.1167 287° West 150 173 6,000  Level Winnipeg Center
08:11AM 50.4000 -105.1667 242° Southwest 150 173 6,000  Level Winnipeg Center
08:12AM 50.4167 -105.2500 287° West 160 184 6,000  Level Winnipeg Center
08:13AM 50.4167 -105.3000 270° West 160 184 6,000  Level Winnipeg Center
08:14AM 50.4167 -105.3833 270° West 160 184 6,000  Level Winnipeg Center
08:15AM 50.4000 -105.4500 249° West 160 184 6,000  Level Winnipeg Center
08:16AM 50.4167 -105.5167 291° West 160 184 6,000  Level Winnipeg Center
08:17AM 50.4000 -105.5833 249° West 160 184 6,000  Level Winnipeg Center
08:18AM 50.3833 -105.6667 253° West 170 196 6,000  Level Winnipeg Center
08:19AM 50.3833 -105.7500 270° West 170 196 6,000 -180 Level Winnipeg Center
08:20AM 50.3667 -105.8167 249° West 170 196 5,700 -180 Descending Winnipeg Center
08:21AM 50.3667 -105.8667 270° West 170 196 5,700  Level Winnipeg Center
08:22AM 50.3667 -105.9500 270° West 170 196 5,700  Level Winnipeg Center
08:23AM 50.3667 -106.0333 270° West 170 196 5,700 60 Level Winnipeg Center
08:24AM 50.3500 -106.1000 249° West 170 196 5,900 60 Climbing Winnipeg Center
08:25AM 50.3500 -106.1833 270° West 170 196 5,900  Level Winnipeg Center
08:26AM 50.3333 -106.2667 253° West 170 196 5,900  Level Winnipeg Center
08:27AM 50.3333 -106.3167 270° West 170 196 5,900  Level Winnipeg Center
08:28AM 50.3500 -106.4000 287° West 160 184 5,900  Level Winnipeg Center
08:29AM 50.3333 -106.4667 249° West 170 196 5,900  Level Winnipeg Center
08:30AM 50.3333 -106.5500 270° West 170 196 5,900  Level Winnipeg Center
08:31AM 50.3500 -106.6333 287° West 170 196 5,900  Level Winnipeg Center
08:32AM 50.3333 -106.6833 242° Southwest 170 196 5,900  Level Winnipeg Center
08:33AM 50.3333 -106.7667 270° West 170 196 5,900  Level Winnipeg Center
08:34AM 50.3167 -106.8333 249° West 170 196 5,900  Level Winnipeg Center
08:35AM 50.3167 -106.9167 270° West 170 196 5,900  Level Winnipeg Center
08:36AM 50.3167 -107.0000 270° West 170 196 6,000 60 Climbing Winnipeg Center
08:38AM 50.3131 -107.0720 266° West  Level FlightAware Approximate
08:45AM 50.2916 -107.5522 265° West  Level FlightAware Approximate
08:46AM 50.2873 -107.6206 264° West  Level FlightAware Approximate
08:47AM 50.2833 -107.6833 265° West  Level FlightAware Approximate
08:48AM 50.2919 -107.6906 265° West  Level Estimated
08:49AM 50.2919 -107.6906 265° West  Level Estimated
08:50AM 50.2919 -107.6906 265° West  Level Estimated
08:51AM 50.2919 -107.6906 265° West  Level Estimated
08:52AM 50.2919 -107.6906 265° West  Level Estimated
08:53AM 50.2919 -107.6906 265° West  Level Estimated
08:54AM 50.2919 -107.6906 265° West  Level Estimated
08:55AM 50.2919 -107.6906 265° West  Level Estimated